createdAt,value
2022-10-18T00:02:23.209Z,359.15
2022-10-18T00:04:49.949Z,272.90
2022-10-18T00:07:16.668Z,126.55
2022-10-18T00:09:43.449Z,93.53
2022-10-18T00:12:10.102Z,159.55
2022-10-18T00:14:36.658Z,137.63
2022-10-18T00:17:03.217Z,110.53
2022-10-18T00:19:29.755Z,140.98
2022-10-18T00:21:56.440Z,97.35
2022-10-18T00:24:23.186Z,110.28
2022-10-18T00:26:49.819Z,74.80
2022-10-18T00:29:16.573Z,46.00
2022-10-18T00:31:44.097Z,50.47
2022-10-18T00:34:13.988Z,93.03
2022-10-18T00:36:41.406Z,88.60
2022-10-18T00:39:09.823Z,86.03
2022-10-18T00:41:38.057Z,198.38
2022-10-18T00:44:26.632Z,152.73
2022-10-18T00:46:58.431Z,134.68
2022-10-18T00:49:35.059Z,101.35
2022-10-18T00:52:09.412Z,204.52
2022-10-18T00:54:40.712Z,159.38
2022-10-18T00:57:07.866Z,119.63
2022-10-18T00:59:35.276Z,135.77
2022-10-18T01:02:02.211Z,62.25
2022-10-18T01:04:28.904Z,64.57
2022-10-18T01:22:51.924Z,48.88
2022-10-18T01:25:41.979Z,66.15
2022-10-18T01:28:31.226Z,71.97
2022-10-18T01:31:05.550Z,13.45
2022-10-18T01:33:43.018Z,118.15
2022-10-18T01:36:23.723Z,136.90
2022-10-18T01:38:54.508Z,97.65
2022-10-18T01:41:24.526Z,111.57
2022-10-18T01:44:01.814Z,7.53
2022-10-18T01:46:29.843Z,16.27
2022-10-18T01:48:57.146Z,13.18
2022-10-18T01:51:29.558Z,11.18
2022-10-18T01:53:57.338Z,5.70
2022-10-18T01:56:42.659Z,6.28
2022-10-18T01:59:36.206Z,3.05
2022-10-18T02:02:16.609Z,5.65
2022-10-18T02:05:02.602Z,3.10
2022-10-18T02:08:05.667Z,3.85
2022-10-18T02:10:55.785Z,3.15
2022-10-18T02:13:25.644Z,2.20
2022-10-18T02:15:58.571Z,2.53
2022-10-18T02:18:31.809Z,2.45
2022-10-18T02:21:00.792Z,3.78
2022-10-18T02:23:27.544Z,4.85
2022-10-18T02:25:54.679Z,4.55
2022-10-18T02:28:22.252Z,32.05
2022-10-18T02:31:13.950Z,20.98
2022-10-18T02:33:53.380Z,4.55
2022-10-18T02:36:28.412Z,4.72
2022-10-18T02:39:02.898Z,4.45
2022-10-18T02:41:31.129Z,4.95
2022-10-18T02:43:57.961Z,72.35
2022-10-18T02:46:24.618Z,37.63
2022-10-18T02:48:51.513Z,27.67
2022-10-18T02:51:18.186Z,18.27
2022-10-18T02:53:44.680Z,7.63
2022-10-18T02:56:12.008Z,1.80
2022-10-18T02:58:38.529Z,2.20
2022-10-18T03:01:05.210Z,2.25
2022-10-18T03:03:31.765Z,4.88
2022-10-18T03:05:58.439Z,3.53
2022-10-18T03:08:25.390Z,3.10
2022-10-18T03:10:51.988Z,3.35
2022-10-18T03:13:18.827Z,70.32
2022-10-18T03:15:46.349Z,111.55
2022-10-18T03:18:12.871Z,143.63
2022-10-18T03:20:39.982Z,125.57
2022-10-18T03:23:07.322Z,80.00
2022-10-18T03:25:34.565Z,16.20
2022-10-18T03:28:01.410Z,43.08
2022-10-18T03:30:28.120Z,92.47
2022-10-18T03:32:54.671Z,170.38
2022-10-18T03:35:21.548Z,222.30
2022-10-18T03:37:48.413Z,171.77
2022-10-18T03:40:15.069Z,62.85
2022-10-18T03:42:41.632Z,28.85
2022-10-18T03:45:08.802Z,22.00
2022-10-18T03:47:35.412Z,22.65
2022-10-18T03:50:01.978Z,9.00
2022-10-18T03:52:28.730Z,18.58
2022-10-18T03:54:55.403Z,1.50
2022-10-18T03:57:21.992Z,37.60
2022-10-18T03:59:48.893Z,1.13
2022-10-18T04:02:15.509Z,2.60
2022-10-18T04:04:42.095Z,1.30
2022-10-18T04:07:08.669Z,1.33
2022-10-18T04:09:35.310Z,0.80
2022-10-18T04:12:01.907Z,1.60
2022-10-18T04:14:28.483Z,3.85
2022-10-18T04:16:55.020Z,1.30
2022-10-18T04:19:21.591Z,51.00
2022-10-18T04:21:48.215Z,101.72
2022-10-18T04:24:17.031Z,69.25
2022-10-18T04:26:43.744Z,1.17
2022-10-18T04:29:10.371Z,2.55
2022-10-18T04:31:37.122Z,36.55
2022-10-18T04:34:04.524Z,1.50
2022-10-18T04:36:31.681Z,7.60
2022-10-18T04:38:58.284Z,3.60
2022-10-18T04:41:24.775Z,1.45
2022-10-18T04:43:51.389Z,2.00
2022-10-18T04:46:17.939Z,1.80
2022-10-18T04:48:44.553Z,6.35
2022-10-18T04:51:11.109Z,12.55
2022-10-18T04:53:37.693Z,21.70
2022-10-18T04:56:04.334Z,23.98
2022-10-18T04:58:30.868Z,8.80
2022-10-18T05:00:57.507Z,2.00
2022-10-18T05:03:25.278Z,2.65
2022-10-18T05:06:06.999Z,3.40
2022-10-18T05:08:35.556Z,2.92
2022-10-18T05:11:03.491Z,10.43
2022-10-18T05:13:30.637Z,20.77
2022-10-18T05:16:00.451Z,5.30
2022-10-18T05:18:27.360Z,8.88
2022-10-18T05:20:53.885Z,38.22
2022-10-18T05:23:20.437Z,10.52
2022-10-18T05:25:47.179Z,46.45
2022-10-18T05:28:38.342Z,16.80
2022-10-18T05:31:02.687Z,97.82
2022-10-18T05:33:29.426Z,141.93
2022-10-18T05:35:56.353Z,91.93
2022-10-18T05:38:23.447Z,91.63
2022-10-18T05:40:50.161Z,61.97
2022-10-18T05:43:17.868Z,145.98
2022-10-18T05:45:49.167Z,52.25
2022-10-18T05:48:16.081Z,182.80
2022-10-18T05:50:43.126Z,156.75
2022-10-18T05:53:12.557Z,154.00
2022-10-18T05:55:51.252Z,77.50
2022-10-18T05:58:17.858Z,123.20
2022-10-18T06:00:44.506Z,143.40
2022-10-18T06:03:11.007Z,79.82
2022-10-18T06:05:40.498Z,249.63
2022-10-18T06:08:10.224Z,94.55
2022-10-18T06:10:40.403Z,106.40
2022-10-18T06:13:06.924Z,107.15
2022-10-18T06:15:33.543Z,100.22
2022-10-18T06:18:00.137Z,53.60
2022-10-18T06:20:26.668Z,56.22
2022-10-18T06:22:53.768Z,4.90
2022-10-18T06:25:20.316Z,29.98
2022-10-18T06:27:46.916Z,40.20
2022-10-18T06:30:13.574Z,26.83
2022-10-18T06:32:40.097Z,103.22
2022-10-18T06:35:07.136Z,143.57
2022-10-18T06:37:35.785Z,103.88
2022-10-18T06:40:02.810Z,169.20
2022-10-18T06:42:29.346Z,148.50
2022-10-18T06:44:56.033Z,52.55
2022-10-18T06:47:22.725Z,24.60
2022-10-18T06:49:49.378Z,15.00
2022-10-18T06:52:20.781Z,79.68
2022-10-18T06:54:47.322Z,44.58
2022-10-18T06:57:13.822Z,3.33
2022-10-18T06:59:40.526Z,8.38
2022-10-18T07:02:07.467Z,22.00
2022-10-18T07:04:34.163Z,9.15
2022-10-18T07:07:00.684Z,6.28
2022-10-18T07:09:27.275Z,4.25
2022-10-18T07:11:54.128Z,5.75
2022-10-18T07:14:20.625Z,5.55
2022-10-18T07:16:47.204Z,6.13
2022-10-18T07:19:14.981Z,7.85
2022-10-18T07:21:41.642Z,7.90
2022-10-18T07:24:08.198Z,8.60
2022-10-18T07:26:35.315Z,8.88
2022-10-18T07:29:06.855Z,6.28
2022-10-18T07:31:34.260Z,9.68
2022-10-18T07:34:01.308Z,7.07
2022-10-18T07:36:27.874Z,8.32
2022-10-18T07:38:54.827Z,9.25
2022-10-18T07:41:22.132Z,8.43
2022-10-18T07:43:51.067Z,9.40
2022-10-18T07:46:19.070Z,8.70
2022-10-18T07:48:46.078Z,5.18
2022-10-18T07:51:13.578Z,7.35
2022-10-18T07:53:40.369Z,6.07
2022-10-18T07:56:11.663Z,7.78
2022-10-18T07:58:38.224Z,9.70
2022-10-18T08:01:06.564Z,5.75
2022-10-18T08:03:33.796Z,6.03
2022-10-18T08:06:00.363Z,4.80
2022-10-18T08:08:27.477Z,8.63
2022-10-18T08:10:54.659Z,8.10
2022-10-18T08:13:21.412Z,4.13
2022-10-18T08:15:47.977Z,4.25
2022-10-18T08:18:14.573Z,6.00
2022-10-18T08:20:45.616Z,5.57
2022-10-18T08:23:12.805Z,5.45
2022-10-18T08:25:39.444Z,7.40
2022-10-18T08:28:06.642Z,4.80
2022-10-18T08:30:34.698Z,4.15
2022-10-18T08:33:02.205Z,3.50
2022-10-18T08:35:28.751Z,3.80
2022-10-18T08:37:55.447Z,3.13
2022-10-18T08:40:22.035Z,5.65
2022-10-18T08:43:05.925Z,4.65
2022-10-18T08:45:42.419Z,6.15
2022-10-18T08:48:21.964Z,5.35
2022-10-18T08:50:49.963Z,5.03
2022-10-18T08:53:45.546Z,4.93
2022-10-18T08:56:16.246Z,4.18
2022-10-18T08:58:46.740Z,4.18
2022-10-18T09:01:27.451Z,5.25
2022-10-18T09:04:21.955Z,5.30
2022-10-18T09:06:51.159Z,5.32
2022-10-18T09:10:00.468Z,5.07
2022-10-18T09:12:59.657Z,4.40
2022-10-18T09:15:50.423Z,4.22
2022-10-18T09:18:47.501Z,5.35
2022-10-18T09:21:25.386Z,8.40
2022-10-18T09:24:05.853Z,7.85
2022-10-18T09:26:43.357Z,6.00
2022-10-18T09:29:29.508Z,6.50
2022-10-18T09:31:58.667Z,6.25
2022-10-18T09:34:55.261Z,5.90
2022-10-18T09:37:24.475Z,6.53
2022-10-18T09:39:55.414Z,6.95
2022-10-18T09:42:29.415Z,5.90
2022-10-18T09:45:01.467Z,6.93
2022-10-18T09:47:35.759Z,5.43
2022-10-18T09:50:15.058Z,5.72
2022-10-18T09:52:50.722Z,4.43
2022-10-18T09:55:30.955Z,4.43
2022-10-18T09:58:01.907Z,3.78
2022-10-18T10:00:33.299Z,4.13
2022-10-18T10:03:02.199Z,4.68
2022-10-18T10:05:28.842Z,5.80
2022-10-18T10:07:59.961Z,5.63
2022-10-18T10:10:30.045Z,4.70
2022-10-18T10:13:15.784Z,3.60
2022-10-18T10:16:01.471Z,6.20
2022-10-18T10:18:31.890Z,4.05
2022-10-18T10:21:01.534Z,3.95
2022-10-18T10:23:33.145Z,4.20
2022-10-18T10:26:21.499Z,3.75
2022-10-18T10:28:49.073Z,4.78
2022-10-18T10:31:24.530Z,3.72
2022-10-18T10:34:15.362Z,4.22
2022-10-18T10:36:53.488Z,3.63
2022-10-18T10:39:22.005Z,3.17
2022-10-18T10:41:54.090Z,2.90
2022-10-18T10:44:23.662Z,3.10
2022-10-18T10:46:52.127Z,2.95
2022-10-18T10:52:33.954Z,3.22
2022-10-18T10:55:23.548Z,2.17
2022-10-18T10:57:51.725Z,2.05
2022-10-18T11:00:38.359Z,5.15
2022-10-18T11:03:28.644Z,2.75
2022-10-18T11:05:58.054Z,2.60
2022-10-18T11:08:28.280Z,1.77
2022-10-18T11:11:22.865Z,2.20
2022-10-18T11:14:07.333Z,1.85
2022-10-18T11:17:12.989Z,1.38
2022-10-18T11:20:17.942Z,1.40
2022-10-18T11:22:56.470Z,2.78
2022-10-18T11:25:28.628Z,1.05
2022-10-18T11:28:23.958Z,1.67
2022-10-18T11:31:11.210Z,1.00
2022-10-18T11:34:14.821Z,3.25
2022-10-18T11:37:26.395Z,1.10
2022-10-18T11:40:04.846Z,7.13
2022-10-18T11:42:57.988Z,2.03
2022-10-18T11:48:12.354Z,1.63
2022-10-18T11:50:54.593Z,1.13
2022-10-18T11:53:23.955Z,1.85
2022-10-18T11:56:11.575Z,0.90
2022-10-18T11:58:42.494Z,1.67
2022-10-18T12:01:26.248Z,2.00
2022-10-18T12:03:59.316Z,0.65
2022-10-18T12:06:37.836Z,1.55
2022-10-18T12:09:14.625Z,0.70
2022-10-18T12:11:54.919Z,0.75
2022-10-18T12:14:59.258Z,1.00
2022-10-18T12:17:46.065Z,0.70
2022-10-18T12:20:20.854Z,0.70
2022-10-18T12:22:55.613Z,1.55
2022-10-18T12:25:22.493Z,1.88
2022-10-18T12:27:56.812Z,2.08
2022-10-18T12:30:28.244Z,0.95
2022-10-18T12:33:26.505Z,0.90
2022-10-18T12:35:59.847Z,1.55
2022-10-18T12:38:31.837Z,3.70
2022-10-18T12:40:59.342Z,1.27
2022-10-18T12:43:38.370Z,1.33
2022-10-18T12:46:13.061Z,1.30
2022-10-18T12:48:43.299Z,0.90
2022-10-18T12:51:23.761Z,1.25
2022-10-18T12:54:07.059Z,1.75
2022-10-18T12:56:41.857Z,1.15
2022-10-18T12:59:14.650Z,0.73
2022-10-18T13:01:50.366Z,0.90
2022-10-18T13:04:29.339Z,2.13
2022-10-18T13:07:04.761Z,0.90
2022-10-18T13:09:35.402Z,1.70
2022-10-18T13:12:10.931Z,4.35
2022-10-18T13:15:12.399Z,0.95
2022-10-18T13:17:56.282Z,0.95
2022-10-18T13:20:27.225Z,1.13
2022-10-18T13:23:12.998Z,3.75
2022-10-18T13:26:17.763Z,1.42
2022-10-18T13:29:11.049Z,3.88
2022-10-18T13:31:47.824Z,6.00
2022-10-18T13:34:23.728Z,1.60
2022-10-18T13:37:08.791Z,1.00
2022-10-18T13:39:36.452Z,1.85
2022-10-18T13:42:02.950Z,1.23
2022-10-18T13:44:31.871Z,2.20
2022-10-18T13:46:58.517Z,1.17
2022-10-18T13:49:30.970Z,1.80
2022-10-18T13:52:15.451Z,1.08
2022-10-18T13:54:48.125Z,1.98
2022-10-18T13:57:35.832Z,1.00
2022-10-18T14:00:44.839Z,1.27
2022-10-18T14:03:57.666Z,2.88
2022-10-18T14:06:41.143Z,1.00
2022-10-18T14:09:26.149Z,1.23
2022-10-18T14:12:20.390Z,1.23
2022-10-18T14:14:59.798Z,1.48
2022-10-18T14:20:20.836Z,4.03
2022-10-18T14:22:56.058Z,1.20
2022-10-18T14:25:27.930Z,1.00
2022-10-18T14:28:36.170Z,0.82
2022-10-18T14:31:19.479Z,1.10
2022-10-18T14:33:57.083Z,1.00
2022-10-18T14:36:27.134Z,1.17
2022-10-18T14:38:57.192Z,1.13
2022-10-18T14:41:32.763Z,4.88
2022-10-18T14:44:17.093Z,3.35
2022-10-18T14:46:50.671Z,1.30
2022-10-18T14:49:19.391Z,1.20
2022-10-18T14:51:50.155Z,2.03
2022-10-18T14:54:21.770Z,2.10
2022-10-18T14:56:49.722Z,1.45
2022-10-18T14:59:20.524Z,5.10
2022-10-18T15:02:00.112Z,1.65
2022-10-18T15:04:34.435Z,1.50
2022-10-18T15:07:06.233Z,1.85
2022-10-18T15:09:35.420Z,1.50
2022-10-18T15:12:07.102Z,2.15
2022-10-18T15:14:34.819Z,4.18
2022-10-18T15:17:30.577Z,2.10
2022-10-18T15:20:06.182Z,1.60
2022-10-18T15:22:34.042Z,1.45
2022-10-18T15:25:09.690Z,1.60
2022-10-18T15:27:40.056Z,4.72
2022-10-18T15:30:08.723Z,3.00
2022-10-18T15:32:35.582Z,3.80
2022-10-18T15:35:16.106Z,1.55
2022-10-18T15:37:46.202Z,1.20
2022-10-18T15:40:18.527Z,1.15
2022-10-18T15:42:45.580Z,1.13
2022-10-18T15:48:18.284Z,1.17
2022-10-18T15:50:47.662Z,3.63
2022-10-18T15:53:20.747Z,0.93
2022-10-18T15:55:50.647Z,1.13
2022-10-18T15:58:26.792Z,1.90
2022-10-18T16:00:58.198Z,1.83
2022-10-18T16:03:25.437Z,2.28
2022-10-18T16:06:07.217Z,1.00
2022-10-18T16:08:40.559Z,1.73
2022-10-18T16:11:24.750Z,1.40
2022-10-18T16:13:55.250Z,1.58
2022-10-18T16:16:27.236Z,1.50
2022-10-18T16:18:54.514Z,2.03
2022-10-18T16:21:30.185Z,2.83
2022-10-18T16:23:57.959Z,2.63
2022-10-18T16:26:25.846Z,2.65
2022-10-18T16:28:53.454Z,3.47
2022-10-18T16:31:26.055Z,4.30
2022-10-18T16:33:54.431Z,2.95
2022-10-18T16:36:24.301Z,4.72
2022-10-18T16:38:51.567Z,4.32
2022-10-18T16:41:18.555Z,2.92
2022-10-18T16:43:47.316Z,2.83
2022-10-18T16:46:23.243Z,3.55
2022-10-18T16:48:50.985Z,3.20
2022-10-18T16:51:17.903Z,4.22
2022-10-18T16:53:45.083Z,5.63
2022-10-18T16:56:17.895Z,4.95
2022-10-18T16:58:46.204Z,4.53
2022-10-18T17:01:14.778Z,2.90
2022-10-18T17:03:41.559Z,3.47
2022-10-18T17:06:15.619Z,4.47
2022-10-18T17:08:42.336Z,4.55
2022-10-18T17:11:10.810Z,3.25
2022-10-18T17:13:37.623Z,3.42
2022-10-18T17:16:05.390Z,4.82
2022-10-18T17:18:32.442Z,4.05
2022-10-18T17:21:03.071Z,3.40
2022-10-18T17:23:30.392Z,4.68
2022-10-18T17:26:05.503Z,5.57
2022-10-18T17:28:42.000Z,5.25
2022-10-18T17:31:08.605Z,6.03
2022-10-18T17:33:35.253Z,4.30
2022-10-18T17:36:02.099Z,5.30
2022-10-18T17:38:28.701Z,7.43
2022-10-18T17:40:57.174Z,7.85
2022-10-18T17:43:23.912Z,4.97
2022-10-18T17:45:54.861Z,4.10
2022-10-18T17:48:21.915Z,5.20
2022-10-18T17:50:48.481Z,4.88
2022-10-18T17:53:16.156Z,9.30
2022-10-18T17:55:42.662Z,6.55
2022-10-18T17:58:09.278Z,5.13
2022-10-18T18:00:35.944Z,6.47
2022-10-18T18:03:02.504Z,5.25
2022-10-18T18:05:34.201Z,4.90
2022-10-18T18:08:03.925Z,4.47
2022-10-18T18:10:33.480Z,4.72
2022-10-18T18:13:00.786Z,4.82
2022-10-18T18:15:27.465Z,5.15
2022-10-18T18:17:57.830Z,6.45
2022-10-18T18:20:26.185Z,7.35
2022-10-18T18:22:53.035Z,6.72
2022-10-18T18:25:19.706Z,6.05
2022-10-18T18:27:46.297Z,5.35
2022-10-18T18:30:12.918Z,6.15
2022-10-18T18:32:39.695Z,5.75
2022-10-18T18:35:06.627Z,8.80
2022-10-18T18:37:33.241Z,7.97
2022-10-18T18:39:59.971Z,8.13
2022-10-18T18:42:26.502Z,9.95
2022-10-18T18:44:53.030Z,7.97
2022-10-18T18:47:21.967Z,8.75
2022-10-18T18:49:49.074Z,8.50
2022-10-18T18:52:15.603Z,11.80
2022-10-18T18:54:42.217Z,9.00
2022-10-18T18:57:09.968Z,9.52
2022-10-18T18:59:36.514Z,9.38
2022-10-18T19:02:03.102Z,10.65
2022-10-18T19:04:29.798Z,8.75
2022-10-18T19:06:56.504Z,10.27
2022-10-18T19:09:23.920Z,10.55
2022-10-18T19:11:53.284Z,9.30
2022-10-18T19:16:53.797Z,11.27
2022-10-18T19:19:23.067Z,9.27
2022-10-18T19:21:52.269Z,10.45
2022-10-18T19:24:20.315Z,11.68
2022-10-18T19:26:52.370Z,11.65
2022-10-18T19:29:30.439Z,10.18
2022-10-18T19:31:59.569Z,10.95
2022-10-18T19:34:28.218Z,14.35
2022-10-18T19:36:55.418Z,12.25
2022-10-18T19:39:27.743Z,13.27
2022-10-18T19:41:56.310Z,12.43
2022-10-18T19:44:26.058Z,16.48
2022-10-18T19:46:53.166Z,13.25
2022-10-18T19:49:19.726Z,15.73
2022-10-18T19:51:46.773Z,16.60
2022-10-18T19:54:14.995Z,16.42
2022-10-18T19:56:42.348Z,17.15
2022-10-18T19:59:09.937Z,17.25
2022-10-18T20:01:36.857Z,22.00
2022-10-18T20:04:07.382Z,28.92
2022-10-18T20:06:34.835Z,511.33
2022-10-18T20:09:01.816Z,466.10
2022-10-18T20:11:29.873Z,353.45
2022-10-18T20:13:57.474Z,203.20
2022-10-18T20:16:28.705Z,269.52
2022-10-18T20:19:00.649Z,406.48
2022-10-18T20:21:29.665Z,199.45
2022-10-18T20:23:56.780Z,71.95
2022-10-18T20:26:25.479Z,43.45
2022-10-18T20:28:56.623Z,37.58
2022-10-18T20:31:25.457Z,45.90
2022-10-18T20:33:57.611Z,40.95
2022-10-18T20:36:24.493Z,37.53
2022-10-18T20:38:51.042Z,45.95
2022-10-18T20:41:21.479Z,42.70
2022-10-18T20:44:03.462Z,43.70
2022-10-18T20:46:31.732Z,40.03
2022-10-18T20:48:58.276Z,46.38
2022-10-18T20:51:24.957Z,48.22
2022-10-18T20:53:52.299Z,49.40
2022-10-18T20:56:27.204Z,48.20
2022-10-18T20:58:55.902Z,55.70
2022-10-18T21:01:25.805Z,60.60
2022-10-18T21:03:54.108Z,60.30
2022-10-18T21:06:30.726Z,86.75
2022-10-18T21:09:02.362Z,116.82
2022-10-18T21:11:30.606Z,106.50
2022-10-18T21:14:00.121Z,147.27
2022-10-18T21:16:27.136Z,78.18
2022-10-18T21:18:53.760Z,216.45
2022-10-18T21:21:25.766Z,81.35
2022-10-18T21:23:52.722Z,74.95
2022-10-18T21:26:24.777Z,73.03
2022-10-18T21:28:53.514Z,62.15
2022-10-18T21:31:34.912Z,68.65
2022-10-18T21:34:04.529Z,69.03
2022-10-18T21:36:33.114Z,65.88
2022-10-18T21:38:59.849Z,72.85
2022-10-18T21:41:26.514Z,72.68
2022-10-18T21:43:55.062Z,68.97
2022-10-18T21:46:23.502Z,81.07
2022-10-18T21:48:52.014Z,283.40
2022-10-18T21:51:21.443Z,320.65
2022-10-18T21:53:50.483Z,294.75
2022-10-18T21:56:35.718Z,197.48
2022-10-18T21:59:03.375Z,764.67
2022-10-18T22:01:35.587Z,530.55
2022-10-18T22:04:05.542Z,707.95
2022-10-18T22:09:07.253Z,696.85
2022-10-18T22:11:37.455Z,676.15
2022-10-18T22:14:04.175Z,468.38
2022-10-18T22:16:30.958Z,550.33
2022-10-18T22:18:59.813Z,742.30
2022-10-18T22:21:27.510Z,642.28
2022-10-18T22:23:57.163Z,842.58
2022-10-18T22:26:30.279Z,685.47
2022-10-18T22:29:02.489Z,668.78
2022-10-18T22:31:32.538Z,624.55
2022-10-18T22:34:01.687Z,528.92
2022-10-18T22:36:28.311Z,291.15
2022-10-18T22:38:54.935Z,468.95
2022-10-18T22:41:21.803Z,537.58
2022-10-18T22:43:50.609Z,265.73
2022-10-18T22:46:17.900Z,416.15
2022-10-18T22:48:45.067Z,505.80
2022-10-18T22:51:12.335Z,246.85
2022-10-18T22:53:39.963Z,429.20
2022-10-18T22:56:09.161Z,239.25
2022-10-18T22:58:35.702Z,332.80
2022-10-18T23:01:06.576Z,347.67
2022-10-18T23:03:33.554Z,282.08
2022-10-18T23:06:00.502Z,250.95
2022-10-18T23:08:27.820Z,174.38
2022-10-18T23:10:58.326Z,251.27
2022-10-18T23:13:26.426Z,240.27
2022-10-18T23:15:53.274Z,219.77
2022-10-18T23:18:19.801Z,153.27
2022-10-18T23:20:46.331Z,214.82
2022-10-18T23:23:13.491Z,420.00
2022-10-18T23:25:40.262Z,143.05
2022-10-18T23:28:07.055Z,211.60
2022-10-18T23:30:33.960Z,206.20
2022-10-18T23:33:00.913Z,155.35
2022-10-18T23:35:28.841Z,579.08
2022-10-18T23:37:55.376Z,369.13
2022-10-18T23:40:21.893Z,255.38
2022-10-18T23:42:48.446Z,455.15
2022-10-18T23:45:15.071Z,225.98
2022-10-18T23:47:41.667Z,322.98
2022-10-18T23:50:08.673Z,140.32
2022-10-18T23:52:35.437Z,251.00
2022-10-18T23:55:01.952Z,151.30
2022-10-18T23:57:28.692Z,140.35
2022-10-18T23:59:55.377Z,147.75
